<?xml version="1.0" encoding="UTF-8" standalone="no" ?>
<gpx xmlns="http://www.topografix.com/GPX/1/1" xmlns:xsi="http://www.w3.org/2001/XMLSchema-instance" xsi:schemaLocation="http://www.topografix.com/GPX/1/1 http://www.topografix.com/GPX/1/1/gpx.xsd" version="1.1" creator="VisuGPX - https://www.visugpx.com">
  <metadata>
    <name>Carantec_Tour_9-23km</name>
    <desc><![CDATA[gnerando idor: 8174953_9307603_9342987]]></desc>
  </metadata>
  <trk>
    <name><![CDATA[Carantec_16.6km-8174953]]></name>
    <extensions>
      <line xmlns="http://www.topografix.com/GPX/gpx_style/0/2">
        <color>0000FF</color>
        <width>4</width>
      </line>
    </extensions>
    <trkseg>
      <trkpt lat="48.65495" lon="-3.90242">
        <ele>7</ele>
        <time>2023-10-31T19:35:04Z</time>
      </trkpt>
      <trkpt lat="48.65724" lon="-3.90474">
        <ele>3</ele>
        <time>2023-10-31T19:41:12Z</time>
      </trkpt>
      <trkpt lat="48.6601" lon="-3.90602">
        <ele>4</ele>
        <time>2023-10-31T19:47:50Z</time>
      </trkpt>
      <trkpt lat="48.66302" lon="-3.90555">
        <ele>7</ele>
        <time>2023-10-31T19:54:22Z</time>
      </trkpt>
      <trkpt lat="48.66486" lon="-3.90272">
        <ele>7</ele>
        <time>2023-10-31T20:00:12Z</time>
      </trkpt>
      <trkpt lat="48.66469" lon="-3.9013">
        <ele>6</ele>
        <time>2023-10-31T20:02:19Z</time>
      </trkpt>
      <trkpt lat="48.66529" lon="-3.90023">
        <ele>11</ele>
        <time>2023-10-31T20:04:22Z</time>
      </trkpt>
      <trkpt lat="48.66648" lon="-3.90186">
        <ele>30</ele>
        <time>2023-10-31T20:07:57Z</time>
      </trkpt>
      <trkpt lat="48.66648" lon="-3.90032">
        <ele>31</ele>
        <time>2023-10-31T20:10:12Z</time>
      </trkpt>
      <trkpt lat="48.66546" lon="-3.89877">
        <ele>12</ele>
        <time>2023-10-31T20:13:25Z</time>
      </trkpt>
      <trkpt lat="48.66659" lon="-3.89504">
        <ele>13</ele>
        <time>2023-10-31T20:19:27Z</time>
      </trkpt>
      <trkpt lat="48.66648" lon="-3.89311">
        <ele>9</ele>
        <time>2023-10-31T20:22:18Z</time>
      </trkpt>
      <trkpt lat="48.66696" lon="-3.89083">
        <ele>7</ele>
        <time>2023-10-31T20:25:48Z</time>
      </trkpt>
      <trkpt lat="48.66886" lon="-3.88989">
        <ele>6</ele>
        <time>2023-10-31T20:30:15Z</time>
      </trkpt>
      <trkpt lat="48.66945" lon="-3.89062">
        <ele>18</ele>
        <time>2023-10-31T20:31:57Z</time>
      </trkpt>
      <trkpt lat="48.67098" lon="-3.89096">
        <ele>10</ele>
        <time>2023-10-31T20:35:23Z</time>
      </trkpt>
      <trkpt lat="48.67098" lon="-3.89328">
        <ele>20</ele>
        <time>2023-10-31T20:38:48Z</time>
      </trkpt>
      <trkpt lat="48.67158" lon="-3.89499">
        <ele>9</ele>
        <time>2023-10-31T20:41:38Z</time>
      </trkpt>
      <trkpt lat="48.6718" lon="-3.89645">
        <ele>19</ele>
        <time>2023-10-31T20:43:50Z</time>
      </trkpt>
      <trkpt lat="48.67243" lon="-3.89774">
        <ele>13</ele>
        <time>2023-10-31T20:46:12Z</time>
      </trkpt>
      <trkpt lat="48.67234" lon="-3.89881">
        <ele>10</ele>
        <time>2023-10-31T20:47:47Z</time>
      </trkpt>
      <trkpt lat="48.67104" lon="-3.89881">
        <ele>10</ele>
        <time>2023-10-31T20:50:40Z</time>
      </trkpt>
      <trkpt lat="48.6703" lon="-3.90135">
        <ele>12</ele>
        <time>2023-10-31T20:54:45Z</time>
      </trkpt>
      <trkpt lat="48.67036" lon="-3.90358">
        <ele>11</ele>
        <time>2023-10-31T20:58:02Z</time>
      </trkpt>
      <trkpt lat="48.66988" lon="-3.90577">
        <ele>11</ele>
        <time>2023-10-31T21:01:25Z</time>
      </trkpt>
      <trkpt lat="48.66923" lon="-3.9077">
        <ele>4</ele>
        <time>2023-10-31T21:04:36Z</time>
      </trkpt>
      <trkpt lat="48.66965" lon="-3.91057">
        <ele>7</ele>
        <time>2023-10-31T21:08:55Z</time>
      </trkpt>
      <trkpt lat="48.67042" lon="-3.9119">
        <ele>17</ele>
        <time>2023-10-31T21:11:31Z</time>
      </trkpt>
      <trkpt lat="48.67172" lon="-3.91255">
        <ele>20</ele>
        <time>2023-10-31T21:14:34Z</time>
      </trkpt>
      <trkpt lat="48.67265" lon="-3.91225">
        <ele>11</ele>
        <time>2023-10-31T21:16:40Z</time>
      </trkpt>
      <trkpt lat="48.67362" lon="-3.91358">
        <ele>8</ele>
        <time>2023-10-31T21:19:35Z</time>
      </trkpt>
      <trkpt lat="48.67316" lon="-3.91499">
        <ele>15</ele>
        <time>2023-10-31T21:21:54Z</time>
      </trkpt>
      <trkpt lat="48.67291" lon="-3.91727">
        <ele>17</ele>
        <time>2023-10-31T21:25:17Z</time>
      </trkpt>
      <trkpt lat="48.67345" lon="-3.91778">
        <ele>11</ele>
        <time>2023-10-31T21:26:42Z</time>
      </trkpt>
      <trkpt lat="48.67418" lon="-3.91937">
        <ele>6</ele>
        <time>2023-10-31T21:29:33Z</time>
      </trkpt>
      <trkpt lat="48.67535" lon="-3.92186">
        <ele>6</ele>
        <time>2023-10-31T21:34:02Z</time>
      </trkpt>
      <trkpt lat="48.67424" lon="-3.92349">
        <ele>3</ele>
        <time>2023-10-31T21:37:28Z</time>
      </trkpt>
      <trkpt lat="48.67467" lon="-3.92461">
        <ele>1</ele>
        <time>2023-10-31T21:39:23Z</time>
      </trkpt>
      <trkpt lat="48.68373" lon="-3.92233">
        <ele>5</ele>
        <time>2023-10-31T21:59:48Z</time>
      </trkpt>
      <trkpt lat="48.68634" lon="-3.92293">
        <ele>6</ele>
        <time>2023-10-31T22:05:41Z</time>
      </trkpt>
      <trkpt lat="48.6879" lon="-3.92272">
        <ele>7</ele>
        <time>2023-10-31T22:09:10Z</time>
      </trkpt>
      <trkpt lat="48.68827" lon="-3.92203">
        <ele>8</ele>
        <time>2023-10-31T22:10:28Z</time>
      </trkpt>
      <trkpt lat="48.68949" lon="-3.92461">
        <ele>5</ele>
        <time>2023-10-31T22:15:07Z</time>
      </trkpt>
      <trkpt lat="48.69051" lon="-3.92589">
        <ele>7</ele>
        <time>2023-10-31T22:18:04Z</time>
      </trkpt>
      <trkpt lat="48.69167" lon="-3.9243">
        <ele>16</ele>
        <time>2023-10-31T22:21:33Z</time>
      </trkpt>
      <trkpt lat="48.69328" lon="-3.92473">
        <ele>13</ele>
        <time>2023-10-31T22:25:11Z</time>
      </trkpt>
      <trkpt lat="48.69538" lon="-3.92572">
        <ele>6</ele>
        <time>2023-10-31T22:30:05Z</time>
      </trkpt>
      <trkpt lat="48.69696" lon="-3.92525">
        <ele>8</ele>
        <time>2023-10-31T22:33:39Z</time>
      </trkpt>
      <trkpt lat="48.6973" lon="-3.9234">
        <ele>6</ele>
        <time>2023-10-31T22:36:29Z</time>
      </trkpt>
      <trkpt lat="48.69796" lon="-3.92327">
        <ele>4</ele>
        <time>2023-10-31T22:37:57Z</time>
      </trkpt>
      <trkpt lat="48.69866" lon="-3.9243">
        <ele>5</ele>
        <time>2023-10-31T22:40:08Z</time>
      </trkpt>
      <trkpt lat="48.69889" lon="-3.92581">
        <ele>5</ele>
        <time>2023-10-31T22:42:24Z</time>
      </trkpt>
      <trkpt lat="48.69787" lon="-3.92598">
        <ele>8</ele>
        <time>2023-10-31T22:44:41Z</time>
      </trkpt>
      <trkpt lat="48.69677" lon="-3.92503">
        <ele>7</ele>
        <time>2023-10-31T22:47:30Z</time>
      </trkpt>
      <trkpt lat="48.69379" lon="-3.92542">
        <ele>9</ele>
        <time>2023-10-31T22:54:09Z</time>
      </trkpt>
      <trkpt lat="48.69133" lon="-3.9243">
        <ele>13</ele>
        <time>2023-10-31T22:59:52Z</time>
      </trkpt>
      <trkpt lat="48.69034" lon="-3.92572">
        <ele>7</ele>
        <time>2023-10-31T23:02:54Z</time>
      </trkpt>
      <trkpt lat="48.68929" lon="-3.92499">
        <ele>6</ele>
        <time>2023-10-31T23:05:28Z</time>
      </trkpt>
      <trkpt lat="48.68787" lon="-3.92598">
        <ele>5</ele>
        <time>2023-10-31T23:08:57Z</time>
      </trkpt>
      <trkpt lat="48.68354" lon="-3.92212">
        <ele>6</ele>
        <time>2023-10-31T23:20:07Z</time>
      </trkpt>
      <trkpt lat="48.67441" lon="-3.92486">
        <ele>1</ele>
        <time>2023-10-31T23:40:49Z</time>
      </trkpt>
      <trkpt lat="48.67404" lon="-3.92297">
        <ele>7</ele>
        <time>2023-10-31T23:43:43Z</time>
      </trkpt>
      <trkpt lat="48.67197" lon="-3.92285">
        <ele>6</ele>
        <time>2023-10-31T23:48:19Z</time>
      </trkpt>
      <trkpt lat="48.67025" lon="-3.92323">
        <ele>9</ele>
        <time>2023-10-31T23:52:11Z</time>
      </trkpt>
      <trkpt lat="48.66823" lon="-3.92521">
        <ele>5</ele>
        <time>2023-10-31T23:57:32Z</time>
      </trkpt>
      <trkpt lat="48.66738" lon="-3.92555">
        <ele>5</ele>
        <time>2023-10-31T23:59:30Z</time>
      </trkpt>
      <trkpt lat="48.66616" lon="-3.92675">
        <ele>4</ele>
        <time>2023-11-01T00:02:44Z</time>
      </trkpt>
      <trkpt lat="48.66506" lon="-3.92709">
        <ele>5</ele>
        <time>2023-11-01T00:05:14Z</time>
      </trkpt>
      <trkpt lat="48.66506" lon="-3.92486">
        <ele>20</ele>
        <time>2023-11-01T00:08:30Z</time>
      </trkpt>
      <trkpt lat="48.66444" lon="-3.92117">
        <ele>40</ele>
        <time>2023-11-01T00:14:06Z</time>
      </trkpt>
      <trkpt lat="48.66412" lon="-3.91637">
        <ele>47</ele>
        <time>2023-11-01T00:21:11Z</time>
      </trkpt>
      <trkpt lat="48.66273" lon="-3.91598">
        <ele>51</ele>
        <time>2023-11-01T00:24:20Z</time>
      </trkpt>
      <trkpt lat="48.6597" lon="-3.91396">
        <ele>56</ele>
        <time>2023-11-01T00:31:41Z</time>
      </trkpt>
      <trkpt lat="48.65981" lon="-3.91233">
        <ele>55</ele>
        <time>2023-11-01T00:34:06Z</time>
      </trkpt>
      <trkpt lat="48.65789" lon="-3.91195">
        <ele>59</ele>
        <time>2023-11-01T00:38:24Z</time>
      </trkpt>
      <trkpt lat="48.65681" lon="-3.91049">
        <ele>60</ele>
        <time>2023-11-01T00:41:38Z</time>
      </trkpt>
      <trkpt lat="48.6563" lon="-3.911">
        <ele>59</ele>
        <time>2023-11-01T00:42:59Z</time>
      </trkpt>
      <trkpt lat="48.65329" lon="-3.90963">
        <ele>62</ele>
        <time>2023-11-01T00:49:59Z</time>
      </trkpt>
      <trkpt lat="48.65219" lon="-3.91006">
        <ele>57</ele>
        <time>2023-11-01T00:52:30Z</time>
      </trkpt>
      <trkpt lat="48.65259" lon="-3.90688">
        <ele>60</ele>
        <time>2023-11-01T00:57:15Z</time>
      </trkpt>
      <trkpt lat="48.65301" lon="-3.9071">
        <ele>60</ele>
        <time>2023-11-01T00:58:15Z</time>
      </trkpt>
      <trkpt lat="48.65335" lon="-3.90551">
        <ele>60</ele>
        <time>2023-11-01T01:00:42Z</time>
      </trkpt>
      <trkpt lat="48.65406" lon="-3.90499">
        <ele>51</ele>
        <time>2023-11-01T01:02:27Z</time>
      </trkpt>
      <trkpt lat="48.65473" lon="-3.90236">
        <ele>9</ele>
        <time>2023-11-01T01:06:36Z</time>
      </trkpt>
    </trkseg>
  </trk>
</gpx>